createdAt,value
2022-07-27T00:01:14.291Z,30.20
2022-07-27T00:03:46.324Z,30.11
2022-07-27T00:06:15.249Z,30.75
2022-07-27T00:08:43.349Z,30.50
2022-07-27T00:11:11.868Z,30.16
2022-07-27T00:13:40.784Z,30.30
2022-07-27T00:16:09.439Z,30.52
2022-07-27T00:18:37.490Z,30.72
2022-07-27T00:21:06.864Z,30.70
2022-07-27T00:23:35.228Z,30.79
2022-07-27T00:26:03.314Z,30.26
2022-07-27T00:28:31.327Z,30.42
2022-07-27T00:30:59.389Z,30.33
2022-07-27T00:33:27.448Z,30.35
2022-07-27T00:35:55.556Z,30.35
2022-07-27T00:38:25.666Z,30.44
2022-07-27T00:40:53.823Z,30.74
2022-07-27T00:43:21.976Z,31.01
2022-07-27T00:45:50.003Z,30.60
2022-07-27T00:48:18.050Z,30.51
2022-07-27T00:50:48.119Z,30.84
2022-07-27T00:53:16.845Z,31.09
2022-07-27T00:55:47.029Z,30.51
2022-07-27T00:58:15.741Z,31.08
2022-07-27T01:00:43.746Z,30.72
2022-07-27T01:03:12.016Z,31.22
2022-07-27T01:05:42.986Z,30.95
2022-07-27T01:08:14.167Z,31.20
2022-07-27T01:10:43.465Z,30.93
2022-07-27T01:13:13.832Z,31.11
2022-07-27T01:15:43.766Z,31.03
2022-07-27T01:18:13.935Z,31.03
2022-07-27T01:20:42.765Z,30.97
2022-07-27T01:23:12.361Z,31.17
2022-07-27T01:25:43.012Z,31.03
2022-07-27T01:28:11.198Z,31.52
2022-07-27T01:30:39.257Z,31.39
2022-07-27T01:33:09.200Z,30.99
2022-07-27T01:35:38.012Z,31.50
2022-07-27T01:38:06.521Z,31.10
2022-07-27T01:40:37.589Z,31.34
2022-07-27T01:43:06.280Z,31.30
2022-07-27T01:45:34.298Z,31.71
2022-07-27T01:48:02.755Z,31.52
2022-07-27T01:50:31.008Z,31.17
2022-07-27T01:52:58.965Z,31.17
2022-07-27T01:55:27.117Z,31.27
2022-07-27T01:58:07.355Z,31.69
2022-07-27T02:00:36.213Z,31.28
2022-07-27T02:03:05.005Z,31.59
2022-07-27T02:05:33.156Z,31.90
2022-07-27T02:08:01.304Z,31.36
2022-07-27T02:10:29.398Z,31.80
2022-07-27T02:12:56.406Z,31.79
2022-07-27T02:15:27.679Z,31.62
2022-07-27T02:17:59.075Z,31.97
2022-07-27T02:20:30.854Z,31.46
2022-07-27T02:22:58.885Z,31.83
2022-07-27T02:25:26.806Z,31.77
2022-07-27T02:27:54.751Z,32.09
2022-07-27T02:30:22.658Z,31.64
2022-07-27T02:32:52.075Z,32.38
2022-07-27T02:35:20.549Z,31.78
2022-07-27T02:37:49.269Z,31.83
2022-07-27T02:40:18.569Z,32.07
2022-07-27T02:42:47.570Z,32.38
2022-07-27T02:45:15.665Z,31.93
2022-07-27T02:47:43.660Z,32.49
2022-07-27T02:50:13.394Z,32.17
2022-07-27T02:52:42.388Z,32.43
2022-07-27T02:55:11.387Z,32.48
2022-07-27T02:57:41.357Z,32.70
2022-07-27T03:00:12.685Z,32.67
2022-07-27T03:02:41.906Z,32.50
2022-07-27T03:05:12.592Z,32.48
2022-07-27T03:07:40.672Z,32.80
2022-07-27T03:10:09.752Z,32.81
2022-07-27T03:12:37.714Z,32.80
2022-07-27T03:15:06.727Z,32.61
2022-07-27T03:17:34.817Z,32.47
2022-07-27T03:20:02.901Z,32.57
2022-07-27T03:22:33.416Z,32.76
2022-07-27T03:25:01.700Z,32.66
2022-07-27T03:27:30.205Z,32.71
2022-07-27T03:29:58.442Z,33.33
2022-07-27T03:32:26.431Z,33.33
2022-07-27T03:34:54.436Z,33.19
2022-07-27T03:37:22.462Z,33.24
2022-07-27T03:39:51.757Z,33.12
2022-07-27T03:42:19.707Z,32.90
2022-07-27T03:44:47.712Z,33.05
2022-07-27T03:47:15.677Z,33.56
2022-07-27T03:49:43.587Z,32.91
2022-07-27T03:52:17.243Z,33.13
2022-07-27T03:54:45.706Z,33.36
2022-07-27T03:57:15.808Z,33.47
2022-07-27T03:59:43.816Z,33.40
2022-07-27T04:02:11.885Z,33.13
2022-07-27T04:04:39.997Z,33.81
2022-07-27T04:07:08.158Z,33.65
2022-07-27T04:09:37.644Z,33.40
2022-07-27T04:12:07.794Z,34.03
2022-07-27T04:14:37.199Z,33.93
2022-07-27T04:17:05.696Z,33.90
2022-07-27T04:19:33.732Z,33.58
2022-07-27T04:22:01.866Z,33.83
2022-07-27T04:24:30.034Z,34.29
2022-07-27T04:26:58.090Z,34.15
2022-07-27T04:29:26.099Z,33.78
2022-07-27T04:31:55.608Z,33.93
2022-07-27T04:34:23.503Z,34.26
2022-07-27T04:36:51.595Z,33.97
2022-07-27T04:39:19.534Z,34.52
2022-07-27T04:41:47.578Z,34.21
2022-07-27T04:44:15.835Z,34.53
2022-07-27T04:46:44.180Z,34.73
2022-07-27T04:49:13.885Z,34.33
2022-07-27T04:51:44.915Z,34.20
2022-07-27T04:54:13.400Z,34.38
2022-07-27T04:56:41.558Z,34.79
2022-07-27T04:59:09.978Z,34.16
2022-07-27T05:01:38.533Z,34.77
2022-07-27T05:04:06.774Z,34.40
2022-07-27T05:06:36.222Z,34.86
2022-07-27T05:09:04.808Z,34.84
2022-07-27T05:11:32.982Z,34.94
2022-07-27T05:14:00.996Z,34.58
2022-07-27T05:16:29.347Z,34.63
2022-07-27T05:18:57.855Z,35.07
2022-07-27T05:21:26.108Z,34.43
2022-07-27T05:23:56.001Z,34.81
2022-07-27T05:26:24.034Z,34.82
2022-07-27T05:28:52.039Z,34.60
2022-07-27T05:31:20.037Z,34.02
2022-07-27T05:33:49.928Z,34.15
2022-07-27T05:36:20.338Z,33.44
2022-07-27T05:38:48.335Z,33.19
2022-07-27T05:41:24.618Z,33.00
2022-07-27T05:43:54.405Z,32.40
2022-07-27T05:46:23.017Z,32.33
2022-07-27T05:48:51.446Z,32.64
2022-07-27T05:51:19.534Z,32.06
2022-07-27T05:53:47.544Z,31.88
2022-07-27T05:56:16.921Z,31.87
2022-07-27T05:58:44.865Z,31.25
2022-07-27T06:01:12.974Z,31.04
2022-07-27T06:03:41.171Z,30.75
2022-07-27T06:06:26.595Z,30.61
2022-07-27T06:08:55.261Z,30.98
2022-07-27T06:11:24.750Z,30.31
2022-07-27T06:13:52.941Z,30.24
2022-07-27T06:16:21.011Z,30.32
2022-07-27T06:18:49.397Z,29.94
2022-07-27T06:21:17.896Z,29.64
2022-07-27T06:23:48.390Z,29.59
2022-07-27T06:26:16.624Z,29.40
2022-07-27T06:28:46.794Z,29.27
2022-07-27T06:31:15.053Z,29.63
2022-07-27T06:33:43.455Z,29.52
2022-07-27T06:36:14.159Z,29.79
2022-07-27T06:38:42.264Z,29.81
2022-07-27T06:41:10.226Z,29.60
2022-07-27T06:43:38.390Z,30.07
2022-07-27T06:46:12.520Z,29.80
2022-07-27T06:48:41.084Z,30.05
2022-07-27T06:51:09.826Z,30.01
2022-07-27T06:53:38.061Z,29.58
2022-07-27T06:56:08.366Z,29.38
2022-07-27T06:58:37.608Z,29.51
2022-07-27T07:01:07.345Z,29.80
2022-07-27T07:03:35.415Z,29.44
2022-07-27T07:06:03.630Z,29.46
2022-07-27T07:08:31.630Z,29.34
2022-07-27T07:10:59.592Z,29.62
2022-07-27T07:13:27.613Z,29.50
2022-07-27T07:15:56.564Z,29.56
2022-07-27T07:18:26.083Z,29.76
2022-07-27T07:20:54.586Z,29.58
2022-07-27T07:23:22.514Z,29.31
2022-07-27T07:25:50.553Z,29.34
2022-07-27T07:28:22.147Z,29.20
2022-07-27T07:30:50.548Z,28.79
2022-07-27T07:33:18.508Z,29.01
2022-07-27T07:36:12.855Z,29.04
2022-07-27T07:38:36.440Z,28.73
2022-07-27T07:41:05.650Z,28.76
2022-07-27T07:43:35.632Z,28.68
2022-07-27T07:46:03.758Z,28.75
2022-07-27T07:48:31.942Z,28.70
2022-07-27T07:51:01.448Z,28.46
2022-07-27T07:53:29.418Z,28.33
2022-07-27T07:55:58.149Z,27.99
2022-07-27T07:58:26.637Z,28.04
2022-07-27T08:00:54.598Z,28.37
2022-07-27T08:03:22.669Z,28.10
2022-07-27T08:05:50.996Z,28.22
2022-07-27T08:08:20.643Z,28.15
2022-07-27T08:10:53.006Z,28.33
2022-07-27T08:13:22.492Z,27.71
2022-07-27T08:15:52.337Z,27.29
2022-07-27T08:18:20.715Z,27.25
2022-07-27T08:20:49.370Z,26.91
2022-07-27T08:23:17.373Z,27.20
2022-07-27T08:25:46.879Z,27.25
2022-07-27T08:28:14.996Z,26.87
2022-07-27T08:30:43.086Z,26.83
2022-07-27T08:33:11.487Z,26.58
2022-07-27T08:35:39.751Z,26.38
2022-07-27T08:38:09.486Z,26.73
2022-07-27T08:40:42.702Z,26.50
2022-07-27T08:43:24.412Z,26.21
2022-07-27T08:45:57.897Z,25.52
2022-07-27T08:48:26.637Z,25.75
2022-07-27T08:50:54.987Z,25.33
2022-07-27T08:53:23.771Z,25.21
2022-07-27T08:55:51.908Z,24.86
2022-07-27T08:58:21.369Z,24.60
2022-07-27T09:00:50.929Z,24.85
2022-07-27T09:03:21.903Z,24.23
2022-07-27T09:05:51.746Z,24.23
2022-07-27T09:08:24.323Z,24.06
2022-07-27T09:10:54.503Z,24.12
2022-07-27T09:13:27.074Z,23.81
2022-07-27T09:16:17.339Z,24.14
2022-07-27T09:18:44.944Z,24.35
2022-07-27T09:21:15.622Z,24.21
2022-07-27T09:23:45.938Z,23.84
2022-07-27T09:26:31.342Z,23.97
2022-07-27T09:29:04.192Z,24.27
2022-07-27T09:31:33.589Z,24.38
2022-07-27T09:34:03.702Z,24.57
2022-07-27T09:36:32.252Z,25.28
2022-07-27T09:39:03.535Z,25.60
2022-07-27T09:41:43.830Z,25.41
2022-07-27T09:44:32.784Z,25.39
2022-07-27T09:47:20.700Z,25.51
2022-07-27T09:49:48.708Z,25.01
2022-07-27T09:52:24.264Z,25.18
2022-07-27T09:54:53.123Z,25.23
2022-07-27T09:57:21.047Z,25.54
2022-07-27T10:00:10.269Z,24.90
2022-07-27T10:02:38.835Z,25.21
2022-07-27T10:05:07.543Z,24.77
2022-07-27T10:07:35.765Z,25.19
2022-07-27T10:10:04.710Z,25.05
2022-07-27T10:12:33.001Z,25.55
2022-07-27T10:15:02.441Z,24.86
2022-07-27T10:17:31.520Z,25.08
2022-07-27T10:20:04.149Z,25.06
2022-07-27T10:22:52.742Z,25.13
2022-07-27T10:25:21.209Z,25.04
2022-07-27T10:27:52.380Z,25.02
2022-07-27T10:30:22.779Z,25.02
2022-07-27T10:32:53.133Z,24.90
2022-07-27T10:35:34.939Z,24.67
2022-07-27T10:38:11.940Z,24.85
2022-07-27T10:40:40.233Z,24.95
2022-07-27T10:43:11.613Z,24.95
2022-07-27T10:45:50.216Z,24.75
2022-07-27T10:48:46.040Z,24.84
2022-07-27T10:51:17.455Z,24.72
2022-07-27T11:19:10.985Z,25.13
2022-07-27T11:21:44.985Z,25.23
2022-07-27T11:24:16.701Z,24.97
2022-07-27T11:26:46.847Z,25.08
2022-07-27T11:29:17.730Z,25.41
2022-07-27T11:31:57.243Z,25.48
2022-07-27T11:34:30.951Z,24.78
2022-07-27T11:37:02.016Z,25.08
2022-07-27T11:42:23.471Z,24.71
2022-07-27T11:44:52.796Z,24.99
2022-07-27T11:47:24.228Z,24.55
2022-07-27T11:49:53.897Z,24.49
2022-07-27T11:52:23.700Z,24.32
2022-07-27T11:54:53.271Z,24.51
2022-07-27T11:57:22.614Z,24.02
2022-07-27T11:59:50.681Z,23.95
2022-07-27T12:02:22.192Z,23.84
2022-07-27T12:04:57.829Z,23.79
2022-07-27T12:07:34.610Z,23.77
2022-07-27T12:10:07.152Z,23.83
2022-07-27T12:12:36.609Z,23.27
2022-07-27T12:15:44.682Z,23.15
2022-07-27T12:18:03.575Z,23.00
2022-07-27T12:20:40.303Z,22.47
2022-07-27T12:23:10.212Z,22.89
2022-07-27T12:25:39.821Z,22.92
2022-07-27T12:28:11.068Z,22.52
2022-07-27T12:30:42.244Z,22.43
2022-07-27T12:33:30.848Z,22.63
2022-07-27T12:36:01.749Z,22.26
2022-07-27T12:38:38.249Z,22.09
2022-07-27T12:41:06.537Z,22.22
2022-07-27T12:43:42.517Z,22.38
2022-07-27T12:46:15.745Z,22.46
2022-07-27T12:48:44.866Z,22.41
2022-07-27T12:51:14.588Z,22.28
2022-07-27T12:53:42.727Z,22.54
2022-07-27T12:56:11.231Z,22.01
2022-07-27T12:58:40.046Z,21.57
2022-07-27T13:01:08.363Z,22.21
2022-07-27T13:03:36.823Z,21.90
2022-07-27T13:06:15.521Z,21.70
2022-07-27T13:24:12.941Z,21.39
2022-07-27T13:26:41.765Z,21.79
2022-07-27T13:29:10.105Z,21.65
2022-07-27T13:31:38.384Z,22.01
2022-07-27T13:34:06.578Z,21.56
2022-07-27T13:36:41.737Z,21.48
2022-07-27T14:28:50.462Z,21.41
2022-07-27T14:31:18.659Z,21.51
2022-07-27T14:33:46.917Z,21.40
2022-07-27T14:36:15.170Z,21.72
2022-07-27T14:38:44.237Z,21.57
2022-07-27T14:41:12.219Z,21.35
2022-07-27T14:43:40.432Z,21.86
2022-07-27T14:46:09.852Z,21.30
2022-07-27T14:49:05.084Z,21.09
2022-07-27T14:51:28.135Z,21.16
2022-07-27T14:53:56.585Z,21.62
2022-07-27T14:56:24.781Z,21.61
2022-07-27T14:58:52.827Z,21.27
2022-07-27T15:01:22.274Z,21.07
2022-07-27T15:03:50.445Z,21.42
2022-07-27T15:06:18.603Z,21.73
2022-07-27T15:08:49.104Z,21.51
2022-07-27T15:11:17.078Z,21.54
2022-07-27T15:13:45.488Z,21.61
2022-07-27T15:16:14.070Z,21.74
2022-07-27T15:18:46.185Z,21.25
2022-07-27T15:46:49.158Z,22.00
2022-07-27T15:49:18.044Z,22.02
2022-07-27T15:51:48.019Z,21.60
2022-07-27T15:54:16.431Z,21.88
2022-07-27T15:56:44.357Z,21.88
2022-07-27T15:59:12.748Z,21.58
2022-07-27T16:01:41.169Z,21.64
2022-07-27T16:04:11.770Z,21.27
2022-07-27T16:06:39.830Z,21.47
2022-07-27T16:09:10.241Z,21.43
2022-07-27T16:11:39.197Z,21.18
2022-07-27T16:14:07.438Z,20.90
2022-07-27T16:16:35.683Z,21.01
2022-07-27T16:19:12.854Z,21.30
2022-07-27T16:21:54.297Z,21.27
2022-07-27T16:24:24.073Z,22.18
2022-07-27T16:26:52.321Z,21.72
2022-07-27T16:29:21.111Z,21.49
2022-07-27T16:31:54.802Z,21.98
2022-07-27T16:34:22.943Z,23.08
2022-07-27T16:36:52.416Z,22.61
2022-07-27T16:39:20.993Z,22.43
2022-07-27T16:41:50.317Z,22.38
2022-07-27T16:44:19.976Z,22.28
2022-07-27T16:46:49.454Z,22.38
2022-07-27T16:49:18.387Z,22.28
2022-07-27T16:51:47.879Z,22.17
2022-07-27T16:54:17.227Z,22.01
2022-07-27T16:56:45.077Z,21.89
2022-07-27T16:59:13.411Z,21.84
2022-07-27T17:01:41.453Z,22.28
2022-07-27T17:04:09.473Z,21.91
2022-07-27T17:06:37.607Z,21.91
2022-07-27T17:09:05.502Z,21.90
2022-07-27T17:11:37.212Z,21.48
2022-07-27T17:14:07.012Z,21.49
2022-07-27T17:16:36.078Z,21.19
2022-07-27T17:19:03.985Z,21.50
2022-07-27T17:21:32.215Z,21.16
2022-07-27T17:24:00.174Z,21.89
2022-07-27T17:26:28.016Z,21.49
2022-07-27T17:28:57.248Z,22.15
2022-07-27T17:31:25.482Z,21.75
2022-07-27T17:33:54.566Z,21.67
2022-07-27T17:36:22.931Z,21.84
2022-07-27T17:38:51.487Z,21.46
2022-07-27T17:41:24.479Z,21.72
2022-07-27T17:43:53.501Z,21.79
2022-07-27T17:46:24.630Z,21.70
2022-07-27T17:48:53.474Z,21.86
2022-07-27T17:51:23.069Z,22.00
2022-07-27T17:53:51.104Z,21.52
2022-07-27T17:56:19.352Z,21.87
2022-07-27T17:58:48.114Z,21.44
2022-07-27T18:01:16.257Z,21.85
2022-07-27T18:03:45.697Z,21.11
2022-07-27T18:06:13.644Z,21.27
2022-07-27T18:08:41.472Z,21.61
2022-07-27T18:11:13.428Z,21.56
2022-07-27T18:13:41.835Z,21.32
2022-07-27T18:16:11.950Z,21.65
2022-07-27T18:18:41.327Z,21.81
2022-07-27T18:21:11.011Z,21.68
2022-07-27T18:23:39.107Z,21.48
2022-07-27T18:26:07.291Z,22.01
2022-07-27T18:28:39.284Z,22.02
2022-07-27T18:31:07.715Z,21.95
2022-07-27T18:33:36.990Z,22.03
2022-07-27T18:36:06.244Z,22.36
2022-07-27T18:38:35.662Z,21.61
2022-07-27T18:41:03.852Z,21.68
2022-07-27T18:43:32.125Z,21.70
2022-07-27T18:46:00.830Z,22.35
2022-07-27T18:48:29.234Z,22.00
2022-07-27T18:50:57.744Z,22.22
2022-07-27T18:53:25.657Z,22.42
2022-07-27T18:55:56.743Z,22.19
2022-07-27T18:58:25.754Z,22.60
2022-07-27T19:00:54.565Z,22.26
2022-07-27T19:03:24.565Z,22.67
2022-07-27T19:05:54.841Z,22.52
2022-07-27T19:08:23.878Z,22.63
2022-07-27T19:10:52.410Z,22.81
2022-07-27T19:13:21.698Z,22.81
2022-07-27T19:15:52.569Z,22.86
2022-07-27T19:18:20.706Z,22.46
2022-07-27T19:20:48.917Z,22.70
2022-07-27T19:23:17.069Z,23.08
2022-07-27T19:25:48.800Z,22.77
2022-07-27T19:28:19.449Z,22.84
2022-07-27T19:30:51.887Z,23.32
2022-07-27T19:33:20.491Z,23.18
2022-07-27T19:35:50.514Z,23.52
2022-07-27T19:38:18.391Z,23.34
2022-07-27T19:40:46.782Z,23.60
2022-07-27T19:43:16.248Z,23.58
2022-07-27T19:45:44.612Z,23.79
2022-07-27T19:48:13.922Z,23.65
2022-07-27T19:50:41.991Z,23.71
2022-07-27T19:53:10.635Z,23.39
2022-07-27T19:55:38.748Z,23.85
2022-07-27T19:58:06.717Z,23.45
2022-07-27T20:00:34.792Z,24.11
2022-07-27T20:03:03.278Z,23.54
2022-07-27T20:05:38.864Z,23.91
2022-07-27T20:08:07.877Z,23.73
2022-07-27T20:10:35.873Z,23.93
2022-07-27T20:13:04.940Z,23.97
2022-07-27T20:15:33.039Z,23.82
2022-07-27T20:18:01.267Z,23.95
2022-07-27T20:20:30.246Z,24.15
2022-07-27T20:22:59.575Z,24.39
2022-07-27T20:25:27.516Z,24.50
2022-07-27T20:27:55.474Z,24.61
2022-07-27T20:30:23.447Z,24.50
2022-07-27T20:32:51.684Z,24.88
2022-07-27T20:35:20.040Z,24.96
2022-07-27T20:37:48.492Z,24.82
2022-07-27T20:40:19.356Z,24.84
2022-07-27T20:42:48.481Z,24.61
2022-07-27T20:45:16.403Z,24.78
2022-07-27T20:47:44.857Z,25.16
2022-07-27T20:50:14.724Z,24.96
2022-07-27T20:52:43.998Z,25.40
2022-07-27T20:55:12.365Z,25.14
2022-07-27T20:57:41.689Z,25.59
2022-07-27T21:00:13.725Z,25.33
2022-07-27T21:02:41.803Z,25.71
2022-07-27T21:05:10.468Z,25.76
2022-07-27T21:07:38.850Z,26.01
2022-07-27T21:10:08.325Z,25.71
2022-07-27T21:12:36.357Z,26.08
2022-07-27T21:15:12.831Z,26.39
2022-07-27T21:17:41.504Z,26.04
2022-07-27T21:20:10.505Z,25.96
2022-07-27T21:22:38.501Z,26.34
2022-07-27T21:25:06.939Z,26.55
2022-07-27T21:27:35.405Z,26.52
2022-07-27T21:30:03.381Z,26.48
2022-07-27T21:32:33.715Z,26.48
2022-07-27T21:35:01.735Z,26.73
2022-07-27T21:37:35.271Z,26.56
2022-07-27T21:40:03.153Z,26.72
2022-07-27T21:42:31.782Z,27.22
2022-07-27T21:45:00.322Z,27.27
2022-07-27T21:47:28.276Z,26.78
2022-07-27T21:49:57.498Z,26.79
2022-07-27T21:52:25.404Z,26.93
2022-07-27T21:54:53.449Z,27.05
2022-07-27T21:57:21.317Z,27.66
2022-07-27T21:59:49.182Z,27.15
2022-07-27T22:02:17.449Z,27.72
2022-07-27T22:04:45.465Z,27.63
2022-07-27T22:07:19.073Z,27.25
2022-07-27T22:09:47.607Z,27.52
2022-07-27T22:12:15.487Z,27.67
2022-07-27T22:14:43.494Z,27.97
2022-07-27T22:17:11.386Z,27.94
2022-07-27T22:19:39.238Z,27.55
2022-07-27T22:22:07.065Z,28.28
2022-07-27T22:24:36.244Z,27.82
2022-07-27T22:27:04.226Z,28.29
2022-07-27T22:29:34.771Z,28.18
2022-07-27T22:32:02.919Z,28.13
2022-07-27T22:34:30.800Z,28.52
2022-07-27T22:36:58.555Z,28.25
2022-07-27T22:39:26.509Z,28.76
2022-07-27T22:41:55.687Z,28.80
2022-07-27T22:44:23.546Z,28.33
2022-07-27T22:46:51.361Z,28.37
2022-07-27T22:49:19.328Z,28.82
2022-07-27T22:51:49.389Z,28.55
2022-07-27T22:54:20.970Z,28.48
2022-07-27T22:56:49.344Z,29.05
2022-07-27T22:59:18.561Z,28.55
2022-07-27T23:01:48.981Z,28.84
2022-07-27T23:04:18.326Z,28.92
2022-07-27T23:06:46.628Z,28.87
2022-07-27T23:09:14.679Z,29.34
2022-07-27T23:11:43.725Z,28.93
2022-07-27T23:14:11.988Z,29.30
2022-07-27T23:16:43.384Z,29.33
2022-07-27T23:19:11.759Z,29.30
2022-07-27T23:21:41.808Z,29.58
2022-07-27T23:24:11.188Z,29.61
2022-07-27T23:26:39.627Z,29.60
2022-07-27T23:29:07.549Z,29.23
2022-07-27T23:31:35.591Z,29.41
2022-07-27T23:34:04.973Z,29.62
2022-07-27T23:36:32.902Z,29.42
2022-07-27T23:39:00.839Z,29.31
2022-07-27T23:41:28.833Z,29.36
2022-07-27T23:43:56.769Z,29.50
2022-07-27T23:46:24.600Z,29.93
2022-07-27T23:48:52.485Z,29.81
2022-07-27T23:51:22.045Z,29.88
2022-07-27T23:53:49.959Z,29.47
2022-07-27T23:56:17.818Z,29.89
2022-07-27T23:58:45.892Z,29.90
